createdAt,value
2022-09-23T00:01:28.680Z,4.91
2022-09-23T00:04:00.154Z,4.92
2022-09-23T00:06:28.842Z,4.90
2022-09-23T00:08:57.326Z,4.86
2022-09-23T00:11:28.029Z,4.90
2022-09-23T00:13:59.960Z,4.85
2022-09-23T00:16:34.647Z,4.84
2022-09-23T00:19:04.069Z,4.84
2022-09-23T00:21:32.419Z,4.81
2022-09-23T00:24:00.693Z,4.85
2022-09-23T00:26:29.175Z,4.77
2022-09-23T00:28:57.618Z,4.77
2022-09-23T00:31:27.532Z,4.72
2022-09-23T00:33:57.744Z,4.82
2022-09-23T00:36:25.810Z,4.84
2022-09-23T00:38:54.618Z,4.92
2022-09-23T00:41:24.092Z,4.89
2022-09-23T00:44:00.922Z,5.02
2022-09-23T00:46:44.174Z,5.06
2022-09-23T00:49:31.112Z,5.11
2022-09-23T00:52:06.494Z,5.13
2022-09-23T00:54:34.461Z,5.19
2022-09-23T00:57:05.905Z,5.25
2022-09-23T00:59:33.878Z,5.27
2022-09-23T01:02:03.130Z,5.34
2022-09-23T01:04:32.057Z,5.38
2022-09-23T01:07:12.426Z,5.41
2022-09-23T01:09:41.282Z,5.48
2022-09-23T01:12:34.503Z,5.63
2022-09-23T01:15:19.992Z,5.72
2022-09-23T01:17:50.769Z,5.84
2022-09-23T01:20:36.154Z,5.94
2022-09-23T01:23:31.641Z,6.06
2022-09-23T01:26:29.060Z,6.11
2022-09-23T01:29:18.494Z,6.12
2022-09-23T01:32:03.610Z,6.18
2022-09-23T01:34:50.879Z,6.25
2022-09-23T01:37:38.419Z,6.35
2022-09-23T01:40:11.813Z,6.41
2022-09-23T01:42:46.736Z,6.40
2022-09-23T01:45:34.879Z,6.45
2022-09-23T01:48:10.742Z,6.44
2022-09-23T01:51:00.818Z,6.40
2022-09-23T01:54:16.146Z,6.27
2022-09-23T01:56:52.383Z,6.30
2022-09-23T01:59:41.240Z,6.28
2022-09-23T02:02:17.347Z,6.27
2022-09-23T02:04:54.962Z,6.23
2022-09-23T02:07:43.556Z,6.18
2022-09-23T02:10:19.185Z,6.19
2022-09-23T02:12:50.589Z,6.12
2022-09-23T02:15:23.343Z,6.08
2022-09-23T02:17:59.238Z,6.03
2022-09-23T02:20:34.262Z,6.04
2022-09-23T02:23:10.165Z,6.06
2022-09-23T02:25:48.189Z,6.09
2022-09-23T02:28:31.580Z,6.11
2022-09-23T02:31:12.440Z,6.11
2022-09-23T02:33:52.770Z,6.11
2022-09-23T02:36:46.115Z,6.01
2022-09-23T02:39:15.716Z,5.97
2022-09-23T02:42:04.203Z,5.86
2022-09-23T02:44:33.706Z,5.86
2022-09-23T02:47:01.640Z,5.87
2022-09-23T02:49:31.729Z,5.89
2022-09-23T02:52:07.788Z,5.83
2022-09-23T02:54:37.614Z,5.93
2022-09-23T02:57:07.719Z,6.14
2022-09-23T02:59:37.487Z,6.15
2022-09-23T03:02:22.719Z,6.17
2022-09-23T03:05:41.881Z,6.15
2022-09-23T03:08:28.393Z,6.10
2022-09-23T03:11:11.674Z,6.06
2022-09-23T03:13:51.302Z,6.04
2022-09-23T03:16:41.277Z,6.11
2022-09-23T03:19:35.642Z,6.07
2022-09-23T03:22:20.223Z,6.05
2022-09-23T03:24:53.711Z,6.01
2022-09-23T03:27:27.104Z,6.06
2022-09-23T03:29:55.355Z,5.96
2022-09-23T03:32:27.569Z,5.79
2022-09-23T03:34:59.815Z,5.84
2022-09-23T03:37:37.355Z,5.77
2022-09-23T03:40:23.374Z,5.69
2022-09-23T03:42:51.862Z,5.73
2022-09-23T03:45:23.421Z,5.73
2022-09-23T03:47:51.173Z,5.70
2022-09-23T03:50:19.649Z,5.64
2022-09-23T03:52:50.774Z,5.61
2022-09-23T03:55:19.849Z,5.57
2022-09-23T03:57:48.408Z,5.50
2022-09-23T04:00:17.209Z,5.43
2022-09-23T04:02:45.816Z,5.37
2022-09-23T04:05:14.599Z,5.29
2022-09-23T04:07:43.169Z,5.36
2022-09-23T04:10:11.902Z,5.39
2022-09-23T04:12:40.081Z,5.40
2022-09-23T04:15:09.436Z,5.39
2022-09-23T04:17:37.877Z,5.43
2022-09-23T04:20:07.366Z,5.47
2022-09-23T04:22:36.070Z,5.50
2022-09-23T04:25:04.717Z,5.54
2022-09-23T04:27:37.440Z,5.55
2022-09-23T04:30:07.227Z,5.60
2022-09-23T04:32:37.133Z,5.58
2022-09-23T04:35:06.739Z,5.65
2022-09-23T04:37:35.469Z,5.64
2022-09-23T04:40:04.120Z,5.68
2022-09-23T04:42:32.534Z,5.74
2022-09-23T04:45:00.988Z,5.87
2022-09-23T04:47:32.117Z,6.05
2022-09-23T04:50:00.703Z,6.23
2022-09-23T04:52:31.366Z,6.61
2022-09-23T04:54:59.894Z,6.92
2022-09-23T04:57:28.245Z,7.01
2022-09-23T04:59:57.960Z,7.09
2022-09-23T05:02:26.627Z,7.28
2022-09-23T05:04:55.503Z,7.23
2022-09-23T05:07:23.983Z,7.32
2022-09-23T05:09:52.729Z,7.20
2022-09-23T05:12:21.178Z,7.22
2022-09-23T05:14:49.220Z,7.16
2022-09-23T05:17:17.741Z,7.15
2022-09-23T05:19:46.030Z,7.07
2022-09-23T05:22:14.818Z,7.03
2022-09-23T05:24:42.605Z,6.93
2022-09-23T05:27:10.368Z,6.80
2022-09-23T05:29:39.361Z,6.82
2022-09-23T05:32:08.513Z,6.87
2022-09-23T05:34:36.372Z,6.81
2022-09-23T05:37:05.972Z,6.82
2022-09-23T05:39:34.234Z,6.90
2022-09-23T05:42:02.470Z,6.70
2022-09-23T05:44:31.132Z,6.62
2022-09-23T05:46:59.114Z,6.85
2022-09-23T05:49:42.846Z,6.87
2022-09-23T05:52:17.737Z,6.88
2022-09-23T05:54:45.741Z,6.95
2022-09-23T05:57:13.736Z,7.06
2022-09-23T05:59:47.876Z,7.47
2022-09-23T06:02:16.425Z,7.96
2022-09-23T06:05:45.297Z,8.46
2022-09-23T06:08:15.227Z,8.72
2022-09-23T06:10:44.976Z,9.04
2022-09-23T06:13:13.585Z,9.46
2022-09-23T06:15:42.236Z,9.88
2022-09-23T06:18:12.774Z,10.08
2022-09-23T06:20:40.809Z,10.20
2022-09-23T06:23:11.186Z,10.59
2022-09-23T06:25:40.118Z,10.86
2022-09-23T06:28:12.586Z,10.99
2022-09-23T06:30:41.242Z,11.19
2022-09-23T06:33:15.364Z,11.50
2022-09-23T06:35:54.777Z,11.58
2022-09-23T06:38:27.801Z,11.86
2022-09-23T06:40:57.759Z,11.91
2022-09-23T06:43:27.010Z,12.07
2022-09-23T06:45:57.264Z,12.08
2022-09-23T06:48:27.345Z,12.07
2022-09-23T06:50:58.886Z,12.24
2022-09-23T06:53:27.501Z,12.46
2022-09-23T06:56:03.273Z,12.59
2022-09-23T06:58:33.024Z,12.81
2022-09-23T07:01:09.386Z,12.91
2022-09-23T07:03:39.055Z,13.11
2022-09-23T07:06:08.604Z,13.19
2022-09-23T07:08:36.742Z,13.28
2022-09-23T07:11:07.249Z,13.42
2022-09-23T07:13:37.707Z,13.11
2022-09-23T07:16:06.700Z,13.24
2022-09-23T07:18:37.459Z,13.41
2022-09-23T07:21:15.968Z,13.27
2022-09-23T07:23:49.069Z,13.52
2022-09-23T07:26:17.068Z,13.32
2022-09-23T07:28:45.656Z,13.36
2022-09-23T07:31:24.709Z,13.62
2022-09-23T07:33:58.176Z,13.56
2022-09-23T07:36:28.409Z,13.58
2022-09-23T07:39:01.875Z,13.61
2022-09-23T07:41:31.666Z,13.46
2022-09-23T07:44:01.349Z,13.45
2022-09-23T07:46:32.275Z,13.17
2022-09-23T07:49:02.532Z,13.15
2022-09-23T07:51:36.022Z,13.20
2022-09-23T07:54:11.975Z,13.51
2022-09-23T07:56:40.055Z,13.59
2022-09-23T07:59:12.022Z,13.76
2022-09-23T08:01:42.898Z,13.66
2022-09-23T08:04:18.904Z,13.80
2022-09-23T08:06:59.115Z,13.80
2022-09-23T08:09:32.372Z,13.80
2022-09-23T08:12:00.833Z,13.73
2022-09-23T08:14:29.544Z,13.73
2022-09-23T08:16:57.798Z,13.96
2022-09-23T08:19:26.406Z,13.97
2022-09-23T08:21:54.930Z,13.87
2022-09-23T08:24:24.824Z,13.87
2022-09-23T08:26:55.038Z,14.09
2022-09-23T08:29:24.667Z,14.21
2022-09-23T08:31:53.186Z,14.07
2022-09-23T08:34:22.818Z,13.81
2022-09-23T08:36:52.445Z,13.63
2022-09-23T08:39:21.959Z,13.80
2022-09-23T08:42:03.159Z,14.19
2022-09-23T08:44:55.710Z,13.99
2022-09-23T08:47:35.968Z,13.48
2022-09-23T08:50:08.705Z,13.33
2022-09-23T08:52:41.359Z,13.33
2022-09-23T08:55:14.882Z,13.72
2022-09-23T08:58:23.823Z,13.79
2022-09-23T09:01:21.168Z,13.38
2022-09-23T09:03:59.599Z,13.02
2022-09-23T09:06:41.842Z,12.92
2022-09-23T09:09:28.261Z,12.85
2022-09-23T09:12:19.127Z,13.44
2022-09-23T09:15:14.488Z,13.53
2022-09-23T09:18:02.928Z,13.20
2022-09-23T09:20:59.203Z,13.33
2022-09-23T09:23:45.731Z,13.49
2022-09-23T09:26:32.975Z,13.39
2022-09-23T09:29:41.612Z,13.23
2022-09-23T09:32:15.959Z,13.23
2022-09-23T09:34:54.416Z,13.52
2022-09-23T09:37:47.265Z,13.70
2022-09-23T09:40:20.785Z,13.84
2022-09-23T09:42:50.929Z,14.05
2022-09-23T09:45:20.113Z,14.16
2022-09-23T09:48:03.461Z,14.13
2022-09-23T09:50:52.537Z,14.09
2022-09-23T09:53:29.644Z,13.98
2022-09-23T09:56:05.216Z,13.70
2022-09-23T09:58:47.471Z,13.75
2022-09-23T10:01:28.277Z,13.88
2022-09-23T10:04:01.796Z,14.05
2022-09-23T10:06:33.419Z,13.95
2022-09-23T10:09:18.994Z,13.66
2022-09-23T10:12:09.770Z,13.76
2022-09-23T10:14:37.907Z,13.66
2022-09-23T10:17:07.654Z,13.80
2022-09-23T10:19:37.245Z,13.87
2022-09-23T10:22:10.229Z,13.72
2022-09-23T10:24:42.603Z,13.91
2022-09-23T10:27:14.265Z,14.21
2022-09-23T10:29:51.948Z,14.15
2022-09-23T10:32:44.458Z,13.96
2022-09-23T10:35:17.754Z,14.07
2022-09-23T10:37:52.215Z,14.14
2022-09-23T10:40:49.706Z,14.19
2022-09-23T10:43:55.082Z,14.43
2022-09-23T10:46:49.996Z,14.54
2022-09-23T10:49:37.710Z,14.64
2022-09-23T10:52:36.638Z,14.14
2022-09-23T10:55:54.855Z,13.86
2022-09-23T10:58:26.395Z,13.67
2022-09-23T11:01:05.711Z,13.64
2022-09-23T11:03:58.696Z,13.76
2022-09-23T11:06:34.089Z,14.02
2022-09-23T11:09:09.418Z,14.31
2022-09-23T11:12:02.374Z,14.68
2022-09-23T11:14:55.758Z,14.81
2022-09-23T11:17:48.897Z,14.84
2022-09-23T11:20:32.501Z,14.71
2022-09-23T11:23:06.120Z,14.65
2022-09-23T11:25:39.921Z,14.67
2022-09-23T11:28:38.800Z,14.40
2022-09-23T11:31:33.297Z,13.92
2022-09-23T11:34:17.060Z,13.98
2022-09-23T11:36:52.310Z,14.22
2022-09-23T11:39:25.712Z,14.37
2022-09-23T11:41:56.655Z,14.66
2022-09-23T11:44:36.218Z,14.79
2022-09-23T11:47:10.691Z,14.93
2022-09-23T11:49:43.449Z,15.19
2022-09-23T11:52:19.816Z,15.20
2022-09-23T11:55:12.024Z,15.29
2022-09-23T11:57:57.737Z,15.25
2022-09-23T12:00:33.256Z,15.29
2022-09-23T12:03:43.458Z,15.48
2022-09-23T12:06:20.724Z,15.63
2022-09-23T12:08:57.423Z,15.61
2022-09-23T12:11:35.485Z,15.48
2022-09-23T12:14:23.546Z,15.53
2022-09-23T12:17:12.766Z,15.20
2022-09-23T12:19:48.085Z,14.90
2022-09-23T12:22:37.282Z,14.61
2022-09-23T12:25:28.406Z,14.51
2022-09-23T12:28:02.307Z,14.47
2022-09-23T12:30:33.276Z,14.68
2022-09-23T12:33:09.603Z,14.82
2022-09-23T12:35:45.322Z,14.89
2022-09-23T12:38:34.802Z,14.74
2022-09-23T12:41:08.274Z,14.62
2022-09-23T12:43:36.847Z,14.51
2022-09-23T12:46:28.200Z,14.41
2022-09-23T12:49:02.658Z,14.44
2022-09-23T12:51:35.538Z,14.56
2022-09-23T12:54:04.005Z,14.81
2022-09-23T12:56:38.976Z,15.08
2022-09-23T12:59:11.611Z,15.20
2022-09-23T13:01:41.108Z,15.20
2022-09-23T13:04:46.460Z,15.00
2022-09-23T13:07:31.664Z,14.94
2022-09-23T13:10:16.137Z,15.00
2022-09-23T13:12:45.966Z,15.20
2022-09-23T13:15:36.284Z,15.18
2022-09-23T13:18:24.772Z,15.20
2022-09-23T13:20:55.280Z,15.20
2022-09-23T13:23:33.853Z,14.99
2022-09-23T13:26:10.849Z,14.76
2022-09-23T13:28:56.673Z,14.56
2022-09-23T13:31:24.839Z,14.45
2022-09-23T13:33:57.299Z,14.36
2022-09-23T13:36:25.447Z,14.38
2022-09-23T13:38:53.290Z,14.32
2022-09-23T13:41:24.057Z,14.27
2022-09-23T13:43:59.588Z,14.23
2022-09-23T13:46:50.749Z,14.32
2022-09-23T13:49:24.592Z,14.28
2022-09-23T13:51:54.459Z,14.32
2022-09-23T13:54:53.488Z,14.48
2022-09-23T13:57:30.991Z,14.43
2022-09-23T14:00:16.388Z,14.53
2022-09-23T14:02:47.129Z,14.41
2022-09-23T14:05:23.630Z,14.41
2022-09-23T14:07:53.038Z,14.44
2022-09-23T14:10:24.074Z,14.54
2022-09-23T14:12:53.673Z,14.53
2022-09-23T14:15:23.182Z,14.54
2022-09-23T14:18:02.025Z,14.44
2022-09-23T14:20:31.035Z,14.59
2022-09-23T14:23:07.289Z,14.52
2022-09-23T14:25:36.136Z,14.44
2022-09-23T14:28:04.710Z,14.47
2022-09-23T14:30:33.148Z,14.55
2022-09-23T14:33:06.759Z,14.61
2022-09-23T14:35:42.996Z,14.57
2022-09-23T14:38:30.037Z,14.48
2022-09-23T14:41:18.119Z,14.56
2022-09-23T14:43:58.728Z,14.44
2022-09-23T14:46:31.628Z,14.51
2022-09-23T14:49:00.113Z,14.49
2022-09-23T14:51:48.319Z,14.46
2022-09-23T14:54:38.254Z,14.35
2022-09-23T14:57:42.443Z,14.36
2022-09-23T15:00:22.013Z,14.28
2022-09-23T15:03:04.828Z,14.14
2022-09-23T15:05:42.925Z,14.06
2022-09-23T15:08:15.987Z,13.96
2022-09-23T15:10:44.445Z,13.89
2022-09-23T15:13:20.165Z,13.85
2022-09-23T15:15:48.696Z,13.79
2022-09-23T15:18:24.099Z,13.82
2022-09-23T15:20:54.493Z,13.83
2022-09-23T15:23:44.162Z,13.82
2022-09-23T15:26:16.012Z,13.79
2022-09-23T15:28:44.726Z,13.76
2022-09-23T15:31:13.697Z,13.67
2022-09-23T15:33:42.283Z,13.61
2022-09-23T15:36:40.208Z,13.59
2022-09-23T15:39:11.058Z,13.55
2022-09-23T15:41:39.177Z,13.56
2022-09-23T15:44:14.759Z,13.50
2022-09-23T15:46:48.412Z,13.53
2022-09-23T15:49:31.598Z,13.47
2022-09-23T15:52:01.229Z,13.38
2022-09-23T15:54:30.044Z,13.36
2022-09-23T15:56:58.484Z,13.32
2022-09-23T15:59:27.442Z,13.24
2022-09-23T16:01:57.469Z,13.18
2022-09-23T16:04:26.750Z,13.18
2022-09-23T16:06:55.064Z,13.15
2022-09-23T16:09:23.449Z,13.11
2022-09-23T16:11:52.703Z,13.12
2022-09-23T16:14:22.191Z,13.06
2022-09-23T16:16:50.150Z,13.05
2022-09-23T16:19:18.811Z,13.04
2022-09-23T16:21:49.450Z,13.00
2022-09-23T16:24:19.189Z,12.75
2022-09-23T16:26:48.705Z,12.74
2022-09-23T16:29:17.474Z,12.55
2022-09-23T16:31:45.483Z,12.52
2022-09-23T16:34:13.856Z,12.43
2022-09-23T16:36:44.211Z,12.43
2022-09-23T16:39:13.972Z,12.32
2022-09-23T16:41:44.179Z,12.30
2022-09-23T16:44:15.951Z,12.29
2022-09-23T16:46:46.203Z,12.30
2022-09-23T16:49:15.862Z,12.24
2022-09-23T16:51:44.129Z,12.25
2022-09-23T16:54:13.449Z,12.24
2022-09-23T16:56:45.184Z,12.22
2022-09-23T16:59:14.776Z,12.22
2022-09-23T17:02:02.941Z,12.19
2022-09-23T17:04:31.750Z,12.16
2022-09-23T17:06:59.491Z,12.12
2022-09-23T17:09:28.972Z,12.05
2022-09-23T17:12:20.358Z,11.98
2022-09-23T17:14:48.236Z,11.86
2022-09-23T17:17:16.062Z,11.82
2022-09-23T17:19:45.360Z,11.86
2022-09-23T17:22:15.966Z,11.84
2022-09-23T17:24:45.927Z,11.86
2022-09-23T17:27:15.990Z,11.88
2022-09-23T17:29:45.164Z,11.90
2022-09-23T17:32:13.735Z,11.92
2022-09-23T17:34:44.655Z,11.95
2022-09-23T17:37:12.602Z,11.98
2022-09-23T17:39:43.911Z,11.99
2022-09-23T17:42:12.733Z,11.93
2022-09-23T17:44:41.680Z,12.02
2022-09-23T17:47:10.069Z,12.05
2022-09-23T17:49:37.889Z,12.06
2022-09-23T17:52:06.260Z,12.07
2022-09-23T17:54:35.943Z,11.74
2022-09-23T17:57:04.479Z,11.65
2022-09-23T17:59:33.020Z,11.58
2022-09-23T18:02:01.886Z,11.58
2022-09-23T18:04:29.815Z,11.52
2022-09-23T18:06:57.595Z,11.56
2022-09-23T18:09:26.177Z,11.61
2022-09-23T18:11:54.458Z,11.61
2022-09-23T18:14:23.296Z,11.60
2022-09-23T18:16:53.968Z,11.62
2022-09-23T18:19:25.006Z,11.62
2022-09-23T18:22:02.112Z,11.64
2022-09-23T18:24:34.977Z,11.56
2022-09-23T18:27:26.039Z,11.58
2022-09-23T18:42:33.200Z,11.52
2022-09-23T18:45:01.754Z,11.55
2022-09-23T18:47:48.176Z,11.53
2022-09-23T18:50:35.405Z,11.51
2022-09-23T18:53:04.875Z,11.51
2022-09-23T18:55:35.875Z,11.57
2022-09-23T18:58:03.998Z,11.55
2022-09-23T19:00:33.258Z,11.56
2022-09-23T19:03:01.701Z,11.56
2022-09-23T19:05:30.377Z,11.57
2022-09-23T19:07:59.684Z,11.49
2022-09-23T19:10:28.496Z,11.54
2022-09-23T19:12:56.770Z,11.49
2022-09-23T19:15:24.527Z,11.49
2022-09-23T19:17:53.230Z,11.46
2022-09-23T19:20:22.978Z,11.47
2022-09-23T19:22:51.400Z,11.44
2022-09-23T19:25:19.611Z,11.44
2022-09-23T19:27:48.981Z,11.46
2022-09-23T19:30:18.314Z,11.43
2022-09-23T19:32:47.024Z,11.40
2022-09-23T19:35:16.901Z,11.33
2022-09-23T19:37:49.554Z,11.29
2022-09-23T19:40:18.808Z,11.27
2022-09-23T19:42:47.095Z,11.24
2022-09-23T19:45:15.267Z,11.22
2022-09-23T19:47:44.012Z,11.15
2022-09-23T19:50:11.818Z,11.08
2022-09-23T19:52:40.236Z,10.98
2022-09-23T19:55:08.994Z,10.85
2022-09-23T19:57:37.401Z,10.70
2022-09-23T20:00:06.739Z,10.57
2022-09-23T20:02:40.735Z,10.43
2022-09-23T20:05:11.993Z,10.34
2022-09-23T20:07:44.327Z,10.23
2022-09-23T20:10:14.589Z,10.02
2022-09-23T20:12:42.703Z,9.78
2022-09-23T20:15:12.263Z,9.72
2022-09-23T20:17:42.513Z,9.64
2022-09-23T20:20:16.528Z,9.59
2022-09-23T20:22:46.395Z,9.51
2022-09-23T20:25:14.270Z,9.38
2022-09-23T20:27:44.055Z,9.35
2022-09-23T20:30:13.436Z,9.23
2022-09-23T20:32:44.637Z,9.11
2022-09-23T20:35:13.792Z,9.00
2022-09-23T20:37:43.275Z,8.82
2022-09-23T20:40:13.134Z,8.79
2022-09-23T20:42:41.565Z,8.68
2022-09-23T20:45:10.562Z,8.59
2022-09-23T20:47:38.834Z,8.50
2022-09-23T20:50:07.496Z,8.43
2022-09-23T20:52:36.892Z,8.34
2022-09-23T20:55:06.244Z,8.30
2022-09-23T20:57:34.842Z,8.20
2022-09-23T21:00:03.753Z,8.02
2022-09-23T21:02:33.903Z,7.85
2022-09-23T21:05:04.859Z,7.79
2022-09-23T21:07:33.767Z,7.72
2022-09-23T21:10:07.198Z,7.70
2022-09-23T21:12:36.523Z,7.64
2022-09-23T21:15:06.854Z,7.59
2022-09-23T21:17:34.943Z,7.54
2022-09-23T21:20:03.148Z,7.44
2022-09-23T21:22:31.348Z,7.40
2022-09-23T21:27:52.745Z,7.40
2022-09-23T21:30:21.404Z,7.38
2022-09-23T21:32:53.218Z,7.41
2022-09-23T21:35:21.064Z,7.43
2022-09-23T21:37:49.096Z,7.46
2022-09-23T21:40:36.323Z,7.45
2022-09-23T21:43:04.676Z,7.45
2022-09-23T21:45:33.215Z,7.40
2022-09-23T21:48:01.481Z,7.45
2022-09-23T21:50:30.652Z,7.46
2022-09-23T21:52:59.243Z,7.47
2022-09-23T21:55:27.972Z,7.45
2022-09-23T21:57:55.756Z,7.53
2022-09-23T22:00:24.256Z,7.55
2022-09-23T22:02:53.998Z,7.51
2022-09-23T22:05:21.893Z,7.46
2022-09-23T22:07:50.429Z,7.38
2022-09-23T22:10:18.443Z,7.34
2022-09-23T22:12:49.594Z,7.25
2022-09-23T22:15:20.308Z,7.29
2022-09-23T22:17:48.763Z,7.28
2022-09-23T22:20:17.511Z,7.32
2022-09-23T22:22:46.144Z,7.40
2022-09-23T22:25:14.076Z,7.42
2022-09-23T22:28:03.030Z,7.46
2022-09-23T22:30:54.490Z,7.37
2022-09-23T22:33:22.357Z,7.29
2022-09-23T22:35:51.602Z,7.29
2022-09-23T22:38:19.461Z,7.28
2022-09-23T22:40:47.345Z,7.23
2022-09-23T22:43:15.626Z,7.21
2022-09-23T22:45:50.921Z,7.22
2022-09-23T22:48:19.953Z,7.18
2022-09-23T22:50:48.638Z,7.16
2022-09-23T22:53:17.171Z,7.11
2022-09-23T22:55:45.738Z,7.07
2022-09-23T22:58:31.206Z,7.04
2022-09-23T23:01:02.811Z,6.99
2022-09-23T23:03:34.426Z,6.91
2022-09-23T23:06:04.149Z,6.85
2022-09-23T23:08:32.752Z,6.70
2022-09-23T23:11:05.621Z,6.55
2022-09-23T23:13:35.117Z,6.44
2022-09-23T23:16:07.547Z,6.45
2022-09-23T23:18:40.324Z,6.39
2022-09-23T23:21:13.635Z,6.40
2022-09-23T23:23:50.340Z,6.39
2022-09-23T23:26:21.763Z,6.40
2022-09-23T23:28:52.110Z,6.37
2022-09-23T23:31:22.142Z,6.31
2022-09-23T23:33:50.706Z,6.25
2022-09-23T23:36:21.153Z,6.12
2022-09-23T23:38:51.999Z,6.14
2022-09-23T23:41:22.751Z,6.10
2022-09-23T23:43:59.072Z,6.06
2022-09-23T23:46:29.040Z,6.05
2022-09-23T23:48:58.111Z,6.01
2022-09-23T23:51:26.998Z,5.94
2022-09-23T23:53:55.795Z,5.88
2022-09-23T23:56:25.389Z,5.86
2022-09-23T23:59:02.801Z,5.80
